sensor_id;sensor_type;location;lat;lon;timestamp;P1;durP1;ratioP1;P2;durP2;ratioP2
66946;SDS011;53853;51.982;5.928;2023-07-22T00:01:49;5.07;;;4.18;;
66946;SDS011;53853;51.982;5.928;2023-07-22T00:04:19;7.57;;;6.78;;
66946;SDS011;53853;51.982;5.928;2023-07-22T00:06:49;7.30;;;5.97;;
66946;SDS011;53853;51.982;5.928;2023-07-22T00:09:19;7.18;;;6.10;;
66946;SDS011;53853;51.982;5.928;2023-07-22T00:11:49;6.78;;;5.10;;
66946;SDS011;53853;51.982;5.928;2023-07-22T00:14:22;5.38;;;4.68;;
66946;SDS011;53853;51.982;5.928;2023-07-22T00:16:52;6.15;;;5.20;;
66946;SDS011;53853;51.982;5.928;2023-07-22T00:19:22;6.93;;;5.85;;
66946;SDS011;53853;51.982;5.928;2023-07-22T00:21:52;5.78;;;5.00;;
66946;SDS011;53853;51.982;5.928;2023-07-22T00:24:21;6.05;;;4.68;;
66946;SDS011;53853;51.982;5.928;2023-07-22T00:26:51;7.15;;;4.78;;
66946;SDS011;53853;51.982;5.928;2023-07-22T00:29:24;5.90;;;4.53;;
66946;SDS011;53853;51.982;5.928;2023-07-22T00:31:54;5.80;;;4.72;;
66946;SDS011;53853;51.982;5.928;2023-07-22T00:34:23;4.72;;;4.00;;
66946;SDS011;53853;51.982;5.928;2023-07-22T00:36:53;5.32;;;4.70;;
66946;SDS011;53853;51.982;5.928;2023-07-22T00:39:24;6.95;;;4.78;;
66946;SDS011;53853;51.982;5.928;2023-07-22T00:41:54;7.30;;;5.35;;
66946;SDS011;53853;51.982;5.928;2023-07-22T00:44:26;6.50;;;5.30;;
66946;SDS011;53853;51.982;5.928;2023-07-22T00:46:56;6.03;;;5.05;;
66946;SDS011;53853;51.982;5.928;2023-07-22T00:49:27;5.72;;;4.70;;
66946;SDS011;53853;51.982;5.928;2023-07-22T00:52:00;6.40;;;5.25;;
66946;SDS011;53853;51.982;5.928;2023-07-22T00:54:31;6.10;;;5.43;;
66946;SDS011;53853;51.982;5.928;2023-07-22T00:57:01;6.95;;;5.35;;
66946;SDS011;53853;51.982;5.928;2023-07-22T00:59:34;5.88;;;4.80;;
66946;SDS011;53853;51.982;5.928;2023-07-22T01:02:04;6.75;;;5.63;;
66946;SDS011;53853;51.982;5.928;2023-07-22T01:04:35;6.38;;;4.95;;
66946;SDS011;53853;51.982;5.928;2023-07-22T01:07:06;6.57;;;5.75;;
66946;SDS011;53853;51.982;5.928;2023-07-22T01:09:37;6.80;;;5.20;;
66946;SDS011;53853;51.982;5.928;2023-07-22T01:12:08;8.32;;;5.88;;
66946;SDS011;53853;51.982;5.928;2023-07-22T01:14:42;8.35;;;6.68;;
66946;SDS011;53853;51.982;5.928;2023-07-22T01:17:12;6.78;;;5.72;;
66946;SDS011;53853;51.982;5.928;2023-07-22T01:19:42;6.57;;;5.55;;
66946;SDS011;53853;51.982;5.928;2023-07-22T01:22:13;6.63;;;5.00;;
66946;SDS011;53853;51.982;5.928;2023-07-22T01:24:47;9.20;;;6.43;;
66946;SDS011;53853;51.982;5.928;2023-07-22T01:27:17;7.32;;;5.57;;
66946;SDS011;53853;51.982;5.928;2023-07-22T01:29:49;8.68;;;6.78;;
66946;SDS011;53853;51.982;5.928;2023-07-22T01:32:20;6.50;;;5.67;;
66946;SDS011;53853;51.982;5.928;2023-07-22T01:34:50;8.57;;;6.82;;
66946;SDS011;53853;51.982;5.928;2023-07-22T01:37:19;7.80;;;6.60;;
66946;SDS011;53853;51.982;5.928;2023-07-22T01:39:52;8.32;;;6.28;;
66946;SDS011;53853;51.982;5.928;2023-07-22T01:42:22;8.45;;;6.40;;
66946;SDS011;53853;51.982;5.928;2023-07-22T01:44:52;8.63;;;7.70;;
66946;SDS011;53853;51.982;5.928;2023-07-22T01:47:22;7.57;;;6.13;;
66946;SDS011;53853;51.982;5.928;2023-07-22T01:49:52;10.48;;;8.63;;
66946;SDS011;53853;51.982;5.928;2023-07-22T01:52:22;11.30;;;7.68;;
66946;SDS011;53853;51.982;5.928;2023-07-22T01:54:55;9.18;;;7.20;;
66946;SDS011;53853;51.982;5.928;2023-07-22T01:57:25;10.00;;;8.52;;
66946;SDS011;53853;51.982;5.928;2023-07-22T01:59:55;8.10;;;6.95;;
66946;SDS011;53853;51.982;5.928;2023-07-22T02:02:25;9.50;;;8.15;;
66946;SDS011;53853;51.982;5.928;2023-07-22T02:04:55;8.60;;;7.22;;
66946;SDS011;53853;51.982;5.928;2023-07-22T02:07:24;10.43;;;7.60;;
66946;SDS011;53853;51.982;5.928;2023-07-22T02:09:57;9.63;;;7.63;;
66946;SDS011;53853;51.982;5.928;2023-07-22T02:12:27;13.80;;;11.05;;
66946;SDS011;53853;51.982;5.928;2023-07-22T02:14:57;12.02;;;9.70;;
66946;SDS011;53853;51.982;5.928;2023-07-22T02:17:28;11.57;;;9.65;;
66946;SDS011;53853;51.982;5.928;2023-07-22T02:19:59;11.45;;;9.57;;
66946;SDS011;53853;51.982;5.928;2023-07-22T02:22:30;9.45;;;8.18;;
66946;SDS011;53853;51.982;5.928;2023-07-22T02:25:03;9.55;;;7.95;;
66946;SDS011;53853;51.982;5.928;2023-07-22T02:27:36;9.30;;;7.97;;
66946;SDS011;53853;51.982;5.928;2023-07-22T02:30:07;11.02;;;8.80;;
66946;SDS011;53853;51.982;5.928;2023-07-22T02:32:39;10.98;;;9.13;;
66946;SDS011;53853;51.982;5.928;2023-07-22T02:35:09;10.82;;;8.57;;
66946;SDS011;53853;51.982;5.928;2023-07-22T02:37:40;10.02;;;8.13;;
66946;SDS011;53853;51.982;5.928;2023-07-22T02:40:13;11.02;;;9.73;;
66946;SDS011;53853;51.982;5.928;2023-07-22T02:42:43;11.07;;;8.95;;
66946;SDS011;53853;51.982;5.928;2023-07-22T02:45:12;10.52;;;8.52;;
66946;SDS011;53853;51.982;5.928;2023-07-22T02:47:42;11.07;;;8.32;;
66946;SDS011;53853;51.982;5.928;2023-07-22T02:50:12;9.57;;;8.57;;
66946;SDS011;53853;51.982;5.928;2023-07-22T02:52:42;11.00;;;8.95;;
66946;SDS011;53853;51.982;5.928;2023-07-22T02:55:15;10.90;;;8.48;;
66946;SDS011;53853;51.982;5.928;2023-07-22T02:57:46;12.43;;;9.40;;
66946;SDS011;53853;51.982;5.928;2023-07-22T03:00:17;11.07;;;9.02;;
66946;SDS011;53853;51.982;5.928;2023-07-22T03:02:49;13.27;;;10.45;;
66946;SDS011;53853;51.982;5.928;2023-07-22T03:05:26;11.77;;;9.68;;
66946;SDS011;53853;51.982;5.928;2023-07-22T03:07:56;11.43;;;9.35;;
66946;SDS011;53853;51.982;5.928;2023-07-22T03:10:31;10.35;;;9.10;;
66946;SDS011;53853;51.982;5.928;2023-07-22T03:13:01;12.77;;;10.32;;
66946;SDS011;53853;51.982;5.928;2023-07-22T03:15:30;10.45;;;8.77;;
66946;SDS011;53853;51.982;5.928;2023-07-22T03:18:00;9.35;;;8.35;;
66946;SDS011;53853;51.982;5.928;2023-07-22T03:20:32;11.23;;;9.25;;
66946;SDS011;53853;51.982;5.928;2023-07-22T03:23:02;14.20;;;11.60;;
66946;SDS011;53853;51.982;5.928;2023-07-22T03:25:35;14.05;;;11.65;;
66946;SDS011;53853;51.982;5.928;2023-07-22T03:28:05;11.90;;;8.85;;
66946;SDS011;53853;51.982;5.928;2023-07-22T03:30:35;11.95;;;10.32;;
66946;SDS011;53853;51.982;5.928;2023-07-22T03:33:05;11.75;;;9.65;;
66946;SDS011;53853;51.982;5.928;2023-07-22T03:35:36;13.45;;;11.38;;
66946;SDS011;53853;51.982;5.928;2023-07-22T03:38:06;15.32;;;11.68;;
66946;SDS011;53853;51.982;5.928;2023-07-22T03:40:39;13.38;;;10.52;;
66946;SDS011;53853;51.982;5.928;2023-07-22T03:43:08;12.48;;;9.70;;
66946;SDS011;53853;51.982;5.928;2023-07-22T03:45:38;13.10;;;11.25;;
66946;SDS011;53853;51.982;5.928;2023-07-22T03:48:08;13.65;;;10.52;;
66946;SDS011;53853;51.982;5.928;2023-07-22T03:50:38;14.57;;;11.70;;
66946;SDS011;53853;51.982;5.928;2023-07-22T03:53:08;13.32;;;10.70;;
66946;SDS011;53853;51.982;5.928;2023-07-22T03:55:41;10.48;;;9.43;;
66946;SDS011;53853;51.982;5.928;2023-07-22T03:58:11;13.85;;;10.90;;
66946;SDS011;53853;51.982;5.928;2023-07-22T04:00:41;12.35;;;11.05;;
66946;SDS011;53853;51.982;5.928;2023-07-22T04:03:11;14.32;;;11.65;;
66946;SDS011;53853;51.982;5.928;2023-07-22T04:05:41;14.90;;;12.23;;
66946;SDS011;53853;51.982;5.928;2023-07-22T04:08:11;13.25;;;10.85;;
66946;SDS011;53853;51.982;5.928;2023-07-22T04:10:46;12.98;;;11.07;;
66946;SDS011;53853;51.982;5.928;2023-07-22T04:13:20;13.93;;;10.35;;
66946;SDS011;53853;51.982;5.928;2023-07-22T04:15:52;14.88;;;10.88;;
66946;SDS011;53853;51.982;5.928;2023-07-22T04:18:23;13.10;;;11.00;;
66946;SDS011;53853;51.982;5.928;2023-07-22T04:20:59;12.27;;;10.60;;
66946;SDS011;53853;51.982;5.928;2023-07-22T04:23:29;13.52;;;10.98;;
66946;SDS011;53853;51.982;5.928;2023-07-22T04:26:02;13.25;;;11.23;;
66946;SDS011;53853;51.982;5.928;2023-07-22T04:28:33;13.23;;;11.20;;
66946;SDS011;53853;51.982;5.928;2023-07-22T04:31:05;14.43;;;11.77;;
66946;SDS011;53853;51.982;5.928;2023-07-22T04:33:35;14.38;;;11.73;;
66946;SDS011;53853;51.982;5.928;2023-07-22T04:36:07;14.27;;;11.63;;
66946;SDS011;53853;51.982;5.928;2023-07-22T04:38:37;12.93;;;10.52;;
66946;SDS011;53853;51.982;5.928;2023-07-22T04:41:09;12.65;;;9.80;;
66946;SDS011;53853;51.982;5.928;2023-07-22T04:43:39;18.13;;;13.55;;
66946;SDS011;53853;51.982;5.928;2023-07-22T04:46:09;21.75;;;15.15;;
66946;SDS011;53853;51.982;5.928;2023-07-22T04:48:39;14.10;;;11.40;;
66946;SDS011;53853;51.982;5.928;2023-07-22T04:51:09;13.95;;;10.75;;
66946;SDS011;53853;51.982;5.928;2023-07-22T04:53:39;13.02;;;10.43;;
66946;SDS011;53853;51.982;5.928;2023-07-22T04:56:11;13.40;;;10.65;;
66946;SDS011;53853;51.982;5.928;2023-07-22T04:58:42;21.37;;;15.53;;
66946;SDS011;53853;51.982;5.928;2023-07-22T05:01:12;13.70;;;10.43;;
66946;SDS011;53853;51.982;5.928;2023-07-22T05:03:42;16.77;;;13.70;;
66946;SDS011;53853;51.982;5.928;2023-07-22T05:06:12;13.85;;;10.82;;
66946;SDS011;53853;51.982;5.928;2023-07-22T05:08:41;12.65;;;10.07;;
66946;SDS011;53853;51.982;5.928;2023-07-22T05:11:14;20.05;;;15.57;;
66946;SDS011;53853;51.982;5.928;2023-07-22T05:13:44;17.45;;;11.93;;
66946;SDS011;53853;51.982;5.928;2023-07-22T05:16:14;14.57;;;11.65;;
66946;SDS011;53853;51.982;5.928;2023-07-22T05:18:44;15.88;;;12.35;;
66946;SDS011;53853;51.982;5.928;2023-07-22T05:21:14;24.30;;;18.27;;
66946;SDS011;53853;51.982;5.928;2023-07-22T05:23:44;22.17;;;15.65;;
66946;SDS011;53853;51.982;5.928;2023-07-22T05:26:16;22.48;;;17.20;;
66946;SDS011;53853;51.982;5.928;2023-07-22T05:28:46;17.17;;;12.63;;
66946;SDS011;53853;51.982;5.928;2023-07-22T05:31:16;18.42;;;15.75;;
66946;SDS011;53853;51.982;5.928;2023-07-22T05:33:46;19.80;;;17.42;;
66946;SDS011;53853;51.982;5.928;2023-07-22T05:36:15;21.20;;;16.27;;
66946;SDS011;53853;51.982;5.928;2023-07-22T05:38:45;20.65;;;15.82;;
66946;SDS011;53853;51.982;5.928;2023-07-22T05:41:18;20.67;;;15.93;;
66946;SDS011;53853;51.982;5.928;2023-07-22T05:43:48;20.00;;;16.77;;
66946;SDS011;53853;51.982;5.928;2023-07-22T05:46:18;16.88;;;13.30;;
66946;SDS011;53853;51.982;5.928;2023-07-22T05:48:48;14.13;;;11.57;;
66946;SDS011;53853;51.982;5.928;2023-07-22T05:51:21;24.50;;;17.83;;
66946;SDS011;53853;51.982;5.928;2023-07-22T05:53:51;21.25;;;15.15;;
66946;SDS011;53853;51.982;5.928;2023-07-22T05:56:23;18.45;;;15.48;;
66946;SDS011;53853;51.982;5.928;2023-07-22T05:58:53;25.00;;;19.60;;
66946;SDS011;53853;51.982;5.928;2023-07-22T06:01:23;22.08;;;16.77;;
66946;SDS011;53853;51.982;5.928;2023-07-22T06:03:53;20.98;;;16.83;;
66946;SDS011;53853;51.982;5.928;2023-07-22T06:06:24;24.10;;;17.63;;
66946;SDS011;53853;51.982;5.928;2023-07-22T06:08:54;20.20;;;16.23;;
66946;SDS011;53853;51.982;5.928;2023-07-22T06:11:26;22.60;;;18.25;;
66946;SDS011;53853;51.982;5.928;2023-07-22T06:13:56;23.50;;;17.57;;
66946;SDS011;53853;51.982;5.928;2023-07-22T06:16:26;22.20;;;17.85;;
66946;SDS011;53853;51.982;5.928;2023-07-22T06:18:56;24.00;;;18.92;;
66946;SDS011;53853;51.982;5.928;2023-07-22T06:21:26;22.60;;;17.50;;
66946;SDS011;53853;51.982;5.928;2023-07-22T06:23:56;26.52;;;18.90;;
66946;SDS011;53853;51.982;5.928;2023-07-22T06:26:29;23.02;;;17.45;;
66946;SDS011;53853;51.982;5.928;2023-07-22T06:28:59;25.00;;;19.20;;
66946;SDS011;53853;51.982;5.928;2023-07-22T06:31:30;23.73;;;18.95;;
66946;SDS011;53853;51.982;5.928;2023-07-22T06:34:00;18.13;;;15.73;;
66946;SDS011;53853;51.982;5.928;2023-07-22T06:36:30;19.77;;;15.48;;
66946;SDS011;53853;51.982;5.928;2023-07-22T06:39:00;16.30;;;12.20;;
66946;SDS011;53853;51.982;5.928;2023-07-22T06:41:33;23.80;;;17.75;;
66946;SDS011;53853;51.982;5.928;2023-07-22T06:44:05;23.00;;;17.23;;
66946;SDS011;53853;51.982;5.928;2023-07-22T06:46:35;23.15;;;18.42;;
66946;SDS011;53853;51.982;5.928;2023-07-22T06:49:05;19.05;;;14.65;;
66946;SDS011;53853;51.982;5.928;2023-07-22T06:51:35;16.25;;;12.40;;
66946;SDS011;53853;51.982;5.928;2023-07-22T06:54:05;20.85;;;13.45;;
66946;SDS011;53853;51.982;5.928;2023-07-22T06:56:38;15.40;;;12.77;;
66946;SDS011;53853;51.982;5.928;2023-07-22T06:59:09;20.40;;;15.07;;
66946;SDS011;53853;51.982;5.928;2023-07-22T07:01:40;18.58;;;14.07;;
66946;SDS011;53853;51.982;5.928;2023-07-22T07:04:09;19.73;;;15.27;;
66946;SDS011;53853;51.982;5.928;2023-07-22T07:06:39;19.45;;;14.30;;
66946;SDS011;53853;51.982;5.928;2023-07-22T07:09:11;18.85;;;13.52;;
66946;SDS011;53853;51.982;5.928;2023-07-22T07:11:44;17.88;;;14.30;;
66946;SDS011;53853;51.982;5.928;2023-07-22T07:14:14;13.32;;;11.05;;
66946;SDS011;53853;51.982;5.928;2023-07-22T07:16:44;19.83;;;15.30;;
66946;SDS011;53853;51.982;5.928;2023-07-22T07:19:14;21.30;;;16.38;;
66946;SDS011;53853;51.982;5.928;2023-07-22T07:21:46;15.15;;;11.90;;
66946;SDS011;53853;51.982;5.928;2023-07-22T07:24:16;21.80;;;15.18;;
66946;SDS011;53853;51.982;5.928;2023-07-22T07:26:48;20.30;;;14.15;;
66946;SDS011;53853;51.982;5.928;2023-07-22T07:29:18;15.38;;;11.57;;
66946;SDS011;53853;51.982;5.928;2023-07-22T07:31:48;16.25;;;13.43;;
66946;SDS011;53853;51.982;5.928;2023-07-22T07:34:18;17.98;;;13.25;;
66946;SDS011;53853;51.982;5.928;2023-07-22T07:36:48;14.50;;;11.50;;
66946;SDS011;53853;51.982;5.928;2023-07-22T07:39:18;15.63;;;11.93;;
66946;SDS011;53853;51.982;5.928;2023-07-22T07:41:51;18.73;;;14.70;;
66946;SDS011;53853;51.982;5.928;2023-07-22T07:44:21;12.68;;;9.82;;
66946;SDS011;53853;51.982;5.928;2023-07-22T07:46:50;13.40;;;9.27;;
66946;SDS011;53853;51.982;5.928;2023-07-22T07:49:20;18.77;;;14.63;;
66946;SDS011;53853;51.982;5.928;2023-07-22T07:51:50;13.75;;;11.68;;
66946;SDS011;53853;51.982;5.928;2023-07-22T07:54:20;13.93;;;11.10;;
66946;SDS011;53853;51.982;5.928;2023-07-22T07:56:53;13.18;;;10.20;;
66946;SDS011;53853;51.982;5.928;2023-07-22T07:59:22;15.05;;;11.13;;
66946;SDS011;53853;51.982;5.928;2023-07-22T08:01:52;15.52;;;11.85;;
66946;SDS011;53853;51.982;5.928;2023-07-22T08:04:22;11.88;;;10.20;;
66946;SDS011;53853;51.982;5.928;2023-07-22T08:06:53;12.30;;;10.15;;
66946;SDS011;53853;51.982;5.928;2023-07-22T08:09:23;13.10;;;9.80;;
66946;SDS011;53853;51.982;5.928;2023-07-22T08:11:55;10.18;;;7.97;;
66946;SDS011;53853;51.982;5.928;2023-07-22T08:14:25;10.27;;;8.88;;
66946;SDS011;53853;51.982;5.928;2023-07-22T08:16:56;12.57;;;8.43;;
66946;SDS011;53853;51.982;5.928;2023-07-22T08:19:25;8.10;;;7.20;;
66946;SDS011;53853;51.982;5.928;2023-07-22T08:21:55;10.48;;;8.40;;
66946;SDS011;53853;51.982;5.928;2023-07-22T08:24:25;10.57;;;9.35;;
66946;SDS011;53853;51.982;5.928;2023-07-22T08:26:58;12.98;;;9.95;;
66946;SDS011;53853;51.982;5.928;2023-07-22T08:29:28;12.05;;;7.95;;
66946;SDS011;53853;51.982;5.928;2023-07-22T08:31:58;13.63;;;9.93;;
66946;SDS011;53853;51.982;5.928;2023-07-22T08:34:28;11.07;;;8.93;;
66946;SDS011;53853;51.982;5.928;2023-07-22T08:36:58;10.80;;;8.68;;
66946;SDS011;53853;51.982;5.928;2023-07-22T08:39:28;14.32;;;9.45;;
66946;SDS011;53853;51.982;5.928;2023-07-22T08:42:01;9.52;;;7.65;;
66946;SDS011;53853;51.982;5.928;2023-07-22T08:44:33;10.75;;;8.75;;
66946;SDS011;53853;51.982;5.928;2023-07-22T08:47:06;9.88;;;8.45;;
66946;SDS011;53853;51.982;5.928;2023-07-22T08:49:44;11.52;;;8.35;;
66946;SDS011;53853;51.982;5.928;2023-07-22T08:52:19;15.90;;;10.75;;
66946;SDS011;53853;51.982;5.928;2023-07-22T08:54:50;17.48;;;9.85;;
66946;SDS011;53853;51.982;5.928;2023-07-22T08:57:23;13.38;;;8.30;;
66946;SDS011;53853;51.982;5.928;2023-07-22T08:59:56;15.60;;;11.60;;
66946;SDS011;53853;51.982;5.928;2023-07-22T09:02:29;9.32;;;7.50;;
66946;SDS011;53853;51.982;5.928;2023-07-22T09:05:00;12.55;;;8.18;;
66946;SDS011;53853;51.982;5.928;2023-07-22T09:07:30;7.78;;;6.30;;
66946;SDS011;53853;51.982;5.928;2023-07-22T09:10:00;13.88;;;10.68;;
66946;SDS011;53853;51.982;5.928;2023-07-22T09:12:33;13.23;;;10.60;;
66946;SDS011;53853;51.982;5.928;2023-07-22T09:15:07;8.75;;;6.65;;
66946;SDS011;53853;51.982;5.928;2023-07-22T09:17:40;12.23;;;9.35;;
66946;SDS011;53853;51.982;5.928;2023-07-22T09:20:10;12.40;;;9.10;;
66946;SDS011;53853;51.982;5.928;2023-07-22T09:22:43;8.70;;;7.43;;
66946;SDS011;53853;51.982;5.928;2023-07-22T09:25:14;9.82;;;7.38;;
66946;SDS011;53853;51.982;5.928;2023-07-22T09:27:49;10.40;;;8.13;;
66946;SDS011;53853;51.982;5.928;2023-07-22T09:30:21;8.40;;;7.00;;
66946;SDS011;53853;51.982;5.928;2023-07-22T09:32:53;9.25;;;7.97;;
66946;SDS011;53853;51.982;5.928;2023-07-22T09:35:26;9.05;;;7.15;;
66946;SDS011;53853;51.982;5.928;2023-07-22T09:37:58;9.07;;;6.18;;
66946;SDS011;53853;51.982;5.928;2023-07-22T09:40:30;9.40;;;6.45;;
66946;SDS011;53853;51.982;5.928;2023-07-22T09:43:03;7.95;;;6.68;;
66946;SDS011;53853;51.982;5.928;2023-07-22T09:45:33;8.17;;;5.80;;
66946;SDS011;53853;51.982;5.928;2023-07-22T09:48:05;11.70;;;6.32;;
66946;SDS011;53853;51.982;5.928;2023-07-22T09:50:37;7.70;;;5.95;;
66946;SDS011;53853;51.982;5.928;2023-07-22T09:53:07;5.85;;;4.40;;
66946;SDS011;53853;51.982;5.928;2023-07-22T09:55:43;7.72;;;4.93;;
66946;SDS011;53853;51.982;5.928;2023-07-22T09:58:15;7.78;;;5.38;;
66946;SDS011;53853;51.982;5.928;2023-07-22T10:00:46;8.38;;;5.60;;
66946;SDS011;53853;51.982;5.928;2023-07-22T10:03:19;9.30;;;5.32;;
66946;SDS011;53853;51.982;5.928;2023-07-22T10:05:51;8.75;;;5.63;;
66946;SDS011;53853;51.982;5.928;2023-07-22T10:08:22;7.55;;;6.05;;
66946;SDS011;53853;51.982;5.928;2023-07-22T10:10:53;7.40;;;4.65;;
66946;SDS011;53853;51.982;5.928;2023-07-22T10:13:28;7.82;;;5.15;;
66946;SDS011;53853;51.982;5.928;2023-07-22T10:15:59;8.73;;;5.23;;
66946;SDS011;53853;51.982;5.928;2023-07-22T10:18:30;8.55;;;5.18;;
66946;SDS011;53853;51.982;5.928;2023-07-22T10:21:00;9.80;;;4.25;;
66946;SDS011;53853;51.982;5.928;2023-07-22T10:23:32;6.95;;;4.93;;
66946;SDS011;53853;51.982;5.928;2023-07-22T10:26:02;9.02;;;5.57;;
66946;SDS011;53853;51.982;5.928;2023-07-22T10:28:36;5.60;;;4.22;;
66946;SDS011;53853;51.982;5.928;2023-07-22T10:31:07;7.90;;;4.47;;
66946;SDS011;53853;51.982;5.928;2023-07-22T10:33:38;6.82;;;5.47;;
66946;SDS011;53853;51.982;5.928;2023-07-22T10:36:09;9.88;;;6.10;;
66946;SDS011;53853;51.982;5.928;2023-07-22T10:38:42;8.52;;;4.13;;
66946;SDS011;53853;51.982;5.928;2023-07-22T10:41:12;7.28;;;4.20;;
66946;SDS011;53853;51.982;5.928;2023-07-22T10:43:55;8.30;;;5.63;;
66946;SDS011;53853;51.982;5.928;2023-07-22T10:46:33;6.25;;;3.63;;
66946;SDS011;53853;51.982;5.928;2023-07-22T10:49:09;7.88;;;5.00;;
66946;SDS011;53853;51.982;5.928;2023-07-22T10:51:41;7.70;;;5.18;;
66946;SDS011;53853;51.982;5.928;2023-07-22T10:54:31;6.63;;;4.45;;
66946;SDS011;53853;51.982;5.928;2023-07-22T10:57:02;8.20;;;5.07;;
66946;SDS011;53853;51.982;5.928;2023-07-22T10:59:53;8.45;;;4.63;;
66946;SDS011;53853;51.982;5.928;2023-07-22T11:02:25;5.18;;;3.90;;
66946;SDS011;53853;51.982;5.928;2023-07-22T11:04:57;7.20;;;5.00;;
66946;SDS011;53853;51.982;5.928;2023-07-22T11:07:30;7.45;;;5.03;;
66946;SDS011;53853;51.982;5.928;2023-07-22T11:10:11;6.47;;;3.60;;
66946;SDS011;53853;51.982;5.928;2023-07-22T11:12:43;5.43;;;3.70;;
66946;SDS011;53853;51.982;5.928;2023-07-22T11:15:17;6.85;;;3.75;;
66946;SDS011;53853;51.982;5.928;2023-07-22T11:17:48;4.15;;;2.70;;
66946;SDS011;53853;51.982;5.928;2023-07-22T11:20:18;4.15;;;2.80;;
66946;SDS011;53853;51.982;5.928;2023-07-22T11:22:51;8.13;;;3.78;;
66946;SDS011;53853;51.982;5.928;2023-07-22T11:25:22;6.38;;;4.00;;
66946;SDS011;53853;51.982;5.928;2023-07-22T11:27:54;5.47;;;3.58;;
66946;SDS011;53853;51.982;5.928;2023-07-22T11:30:27;8.80;;;5.35;;
66946;SDS011;53853;51.982;5.928;2023-07-22T11:32:57;8.48;;;4.82;;
66946;SDS011;53853;51.982;5.928;2023-07-22T11:35:27;6.20;;;4.20;;
66946;SDS011;53853;51.982;5.928;2023-07-22T11:38:00;7.35;;;3.90;;
66946;SDS011;53853;51.982;5.928;2023-07-22T11:40:34;5.75;;;3.83;;
66946;SDS011;53853;51.982;5.928;2023-07-22T11:43:04;5.00;;;3.70;;
66946;SDS011;53853;51.982;5.928;2023-07-22T11:45:37;7.93;;;4.20;;
66946;SDS011;53853;51.982;5.928;2023-07-22T11:48:09;6.05;;;3.50;;
66946;SDS011;53853;51.982;5.928;2023-07-22T11:50:39;5.32;;;3.30;;
66946;SDS011;53853;51.982;5.928;2023-07-22T11:53:09;6.57;;;3.30;;
66946;SDS011;53853;51.982;5.928;2023-07-22T11:55:40;5.93;;;3.40;;
66946;SDS011;53853;51.982;5.928;2023-07-22T11:58:11;8.45;;;2.97;;
66946;SDS011;53853;51.982;5.928;2023-07-22T12:00:44;5.70;;;3.00;;
66946;SDS011;53853;51.982;5.928;2023-07-22T12:03:14;8.02;;;2.97;;
66946;SDS011;53853;51.982;5.928;2023-07-22T12:05:44;6.32;;;3.15;;
66946;SDS011;53853;51.982;5.928;2023-07-22T12:08:14;5.55;;;3.28;;
66946;SDS011;53853;51.982;5.928;2023-07-22T12:10:45;4.40;;;3.08;;
66946;SDS011;53853;51.982;5.928;2023-07-22T12:13:25;5.00;;;2.65;;
66946;SDS011;53853;51.982;5.928;2023-07-22T12:16:01;6.80;;;3.17;;
66946;SDS011;53853;51.982;5.928;2023-07-22T12:18:42;4.25;;;2.80;;
66946;SDS011;53853;51.982;5.928;2023-07-22T12:21:13;5.93;;;3.47;;
66946;SDS011;53853;51.982;5.928;2023-07-22T12:23:42;5.43;;;3.40;;
66946;SDS011;53853;51.982;5.928;2023-07-22T12:26:14;5.13;;;3.25;;
66946;SDS011;53853;51.982;5.928;2023-07-22T12:28:44;6.47;;;3.53;;
66946;SDS011;53853;51.982;5.928;2023-07-22T12:31:16;4.70;;;2.85;;
66946;SDS011;53853;51.982;5.928;2023-07-22T12:33:46;6.45;;;2.65;;
66946;SDS011;53853;51.982;5.928;2023-07-22T12:36:16;3.90;;;2.40;;
66946;SDS011;53853;51.982;5.928;2023-07-22T12:38:46;3.72;;;2.42;;
66946;SDS011;53853;51.982;5.928;2023-07-22T12:41:16;3.65;;;2.30;;
66946;SDS011;53853;51.982;5.928;2023-07-22T12:43:46;4.40;;;2.40;;
66946;SDS011;53853;51.982;5.928;2023-07-22T12:46:19;3.70;;;2.30;;
66946;SDS011;53853;51.982;5.928;2023-07-22T12:48:48;6.70;;;2.70;;
66946;SDS011;53853;51.982;5.928;2023-07-22T12:51:18;5.05;;;3.05;;
66946;SDS011;53853;51.982;5.928;2023-07-22T12:53:48;5.40;;;3.05;;
66946;SDS011;53853;51.982;5.928;2023-07-22T12:56:18;4.72;;;2.20;;
66946;SDS011;53853;51.982;5.928;2023-07-22T12:58:48;4.25;;;2.45;;
66946;SDS011;53853;51.982;5.928;2023-07-22T13:01:20;5.72;;;3.45;;
66946;SDS011;53853;51.982;5.928;2023-07-22T13:03:50;5.07;;;2.45;;
66946;SDS011;53853;51.982;5.928;2023-07-22T13:06:20;3.20;;;2.08;;
66946;SDS011;53853;51.982;5.928;2023-07-22T13:08:50;3.75;;;2.20;;
66946;SDS011;53853;51.982;5.928;2023-07-22T13:11:20;3.88;;;2.00;;
66946;SDS011;53853;51.982;5.928;2023-07-22T13:13:50;5.28;;;3.05;;
66946;SDS011;53853;51.982;5.928;2023-07-22T13:16:22;5.40;;;3.22;;
66946;SDS011;53853;51.982;5.928;2023-07-22T13:18:52;4.93;;;2.92;;
66946;SDS011;53853;51.982;5.928;2023-07-22T13:21:22;6.03;;;3.33;;
66946;SDS011;53853;51.982;5.928;2023-07-22T13:23:52;7.20;;;3.47;;
66946;SDS011;53853;51.982;5.928;2023-07-22T13:26:22;4.10;;;2.38;;
66946;SDS011;53853;51.982;5.928;2023-07-22T13:28:52;3.78;;;2.17;;
66946;SDS011;53853;51.982;5.928;2023-07-22T13:31:24;6.18;;;2.55;;
66946;SDS011;53853;51.982;5.928;2023-07-22T13:33:54;5.38;;;3.35;;
66946;SDS011;53853;51.982;5.928;2023-07-22T13:36:24;3.53;;;2.10;;
66946;SDS011;53853;51.982;5.928;2023-07-22T13:38:53;3.95;;;2.38;;
66946;SDS011;53853;51.982;5.928;2023-07-22T13:41:23;5.03;;;2.38;;
66946;SDS011;53853;51.982;5.928;2023-07-22T13:43:53;4.03;;;1.92;;
66946;SDS011;53853;51.982;5.928;2023-07-22T13:46:26;4.18;;;2.72;;
66946;SDS011;53853;51.982;5.928;2023-07-22T13:48:56;4.70;;;2.63;;
66946;SDS011;53853;51.982;5.928;2023-07-22T13:51:25;4.13;;;2.88;;
66946;SDS011;53853;51.982;5.928;2023-07-22T13:53:55;5.00;;;2.60;;
66946;SDS011;53853;51.982;5.928;2023-07-22T13:56:25;4.13;;;2.53;;
66946;SDS011;53853;51.982;5.928;2023-07-22T13:58:55;6.65;;;3.25;;
66946;SDS011;53853;51.982;5.928;2023-07-22T14:01:29;5.35;;;3.10;;
66946;SDS011;53853;51.982;5.928;2023-07-22T14:03:59;4.88;;;3.20;;
66946;SDS011;53853;51.982;5.928;2023-07-22T14:06:29;4.43;;;2.63;;
66946;SDS011;53853;51.982;5.928;2023-07-22T14:09:00;4.35;;;2.95;;
66946;SDS011;53853;51.982;5.928;2023-07-22T14:11:30;4.80;;;2.80;;
66946;SDS011;53853;51.982;5.928;2023-07-22T14:14:00;5.60;;;3.13;;
66946;SDS011;53853;51.982;5.928;2023-07-22T14:16:33;4.15;;;2.47;;
66946;SDS011;53853;51.982;5.928;2023-07-22T14:19:03;5.65;;;2.88;;
66946;SDS011;53853;51.982;5.928;2023-07-22T14:21:33;4.38;;;2.40;;
66946;SDS011;53853;51.982;5.928;2023-07-22T14:24:03;5.97;;;3.50;;
66946;SDS011;53853;51.982;5.928;2023-07-22T14:26:33;5.85;;;3.05;;
66946;SDS011;53853;51.982;5.928;2023-07-22T14:29:03;5.53;;;2.50;;
66946;SDS011;53853;51.982;5.928;2023-07-22T14:31:35;4.82;;;2.63;;
66946;SDS011;53853;51.982;5.928;2023-07-22T14:34:05;4.15;;;2.38;;
66946;SDS011;53853;51.982;5.928;2023-07-22T14:36:35;7.20;;;3.40;;
66946;SDS011;53853;51.982;5.928;2023-07-22T14:39:05;5.40;;;3.13;;
66946;SDS011;53853;51.982;5.928;2023-07-22T14:41:35;5.45;;;3.10;;
66946;SDS011;53853;51.982;5.928;2023-07-22T14:44:04;4.75;;;2.88;;
66946;SDS011;53853;51.982;5.928;2023-07-22T14:46:37;6.30;;;3.38;;
66946;SDS011;53853;51.982;5.928;2023-07-22T14:49:07;4.95;;;3.10;;
66946;SDS011;53853;51.982;5.928;2023-07-22T14:51:37;5.30;;;2.90;;
66946;SDS011;53853;51.982;5.928;2023-07-22T14:54:06;5.10;;;3.13;;
66946;SDS011;53853;51.982;5.928;2023-07-22T14:56:37;4.40;;;2.53;;
66946;SDS011;53853;51.982;5.928;2023-07-22T14:59:07;5.15;;;2.97;;
66946;SDS011;53853;51.982;5.928;2023-07-22T15:01:40;9.43;;;2.53;;